Time;durP1;ratioP1;P1;durP2;ratioP2;P2;SDS_P1;SDS_P2;PMS_P1;PMS_P2;Temp;Humidity;BMP_temperature;BMP_pressure;BME280_temperature;BME280_humidity;BME280_pressure;Samples;Min_cycle;Max_cycle;Signal;HPM_P1;HPM_P2
2021/07/04 00:00:38;;;;;;;5.55;4.97;;;21.70;74.50;;;;;;5015447;28;20029;-44
2021/07/04 00:03:04;;;;;;;5.15;4.70;;;21.60;74.40;;;;;;5015839;28;20092;-43
2021/07/04 00:05:35;;;;;;;6.10;5.60;;;21.60;74.40;;;;;;5014558;28;20100;-43
2021/07/04 00:08:00;;;;;;;5.85;5.28;;;21.70;74.40;;;;;;5015608;28;20034;-42
2021/07/04 00:10:33;;;;;;;6.65;5.32;;;21.50;74.30;;;;;;5015609;28;20017;-43
2021/07/04 00:12:59;;;;;;;5.90;5.32;;;22.00;74.60;;;;;;5015433;28;20061;-42
2021/07/04 00:15:28;;;;;;;6.20;5.60;;;21.80;74.40;;;;;;5015494;28;20064;-43
2021/07/04 00:17:53;;;;;;;6.47;5.20;;;21.60;74.30;;;;;;5015463;28;20018;-43
2021/07/04 00:20:21;;;;;;;6.78;5.53;;;21.70;74.40;;;;;;5015403;28;20014;-42
2021/07/04 00:22:48;;;;;;;7.63;5.57;;;21.70;74.40;;;;;;5015388;28;20053;-42
2021/07/04 00:25:15;;;;;;;6.07;5.47;;;21.60;74.30;;;;;;5015336;28;20103;-42
2021/07/04 00:27:41;;;;;;;4.70;4.30;;;21.70;74.40;;;;;;5015212;28;20030;-42
2021/07/04 00:30:11;;;;;;;6.13;5.40;;;21.70;74.40;;;;;;5015038;28;20075;-42
2021/07/04 00:32:37;;;;;;;5.68;5.10;;;21.60;74.30;;;;;;5015187;28;20020;-42
2021/07/04 00:35:05;;;;;;;6.18;5.57;;;21.70;74.30;;;;;;5014948;28;20018;-43
2021/07/04 00:37:31;;;;;;;5.70;5.20;;;21.70;74.30;;;;;;5014827;28;20025;-42
2021/07/04 00:39:56;;;;;;;6.55;5.50;;;21.50;74.20;;;;;;5015083;28;20026;-43
2021/07/04 00:42:22;;;;;;;6.65;5.43;;;21.70;74.20;;;;;;5014756;28;20036;-43
2021/07/04 00:44:48;;;;;;;6.75;5.18;;;21.70;74.30;;;;;;5014487;28;20050;-42
2021/07/04 00:47:13;;;;;;;5.70;5.05;;;21.50;74.10;;;;;;5014537;28;20022;-42
2021/07/04 00:49:39;;;;;;;6.10;5.35;;;21.50;74.20;;;;;;5014613;28;20412;-42
2021/07/04 00:52:05;;;;;;;7.68;4.88;;;21.60;74.20;;;;;;5014893;28;20022;-43
2021/07/04 00:54:31;;;;;;;4.82;4.35;;;21.70;74.20;;;;;;5014750;28;20104;-43
2021/07/04 00:56:57;;;;;;;5.45;4.80;;;21.70;74.20;;;;;;5014768;28;20053;-43
2021/07/04 00:59:23;;;;;;;4.95;4.55;;;21.50;74.00;;;;;;5014642;28;20519;-42
2021/07/04 01:01:48;;;;;;;6.22;4.82;;;21.60;74.10;;;;;;5014344;28;20033;-42
2021/07/04 01:04:14;;;;;;;5.15;4.65;;;21.60;74.10;;;;;;5013078;28;20034;-42
2021/07/04 01:06:41;;;;;;;4.88;4.47;;;21.60;74.10;;;;;;5014193;28;20029;-43
2021/07/04 01:09:08;;;;;;;5.82;4.55;;;21.60;74.00;;;;;;5014467;28;20137;-43
2021/07/04 01:11:34;;;;;;;5.18;4.68;;;21.60;74.00;;;;;;5014424;28;20108;-42
2021/07/04 01:14:00;;;;;;;5.07;4.55;;;21.60;74.00;;;;;;5014155;28;20026;-44
2021/07/04 01:16:26;;;;;;;5.90;4.85;;;21.50;74.00;;;;;;5014311;28;20022;-42
2021/07/04 01:18:52;;;;;;;5.43;4.90;;;21.40;73.90;;;;;;5014274;28;20412;-42
2021/07/04 01:21:19;;;;;;;5.03;4.63;;;21.60;74.00;;;;;;5014250;28;20034;-43
2021/07/04 01:23:45;;;;;;;5.28;4.78;;;21.60;74.00;;;;;;5014241;28;20049;-42
2021/07/04 01:26:11;;;;;;;5.25;4.47;;;21.60;74.00;;;;;;5013905;28;20022;-42
2021/07/04 01:28:36;;;;;;;5.13;4.63;;;22.00;74.20;;;;;;5014023;28;20033;-42
2021/07/04 01:31:03;;;;;;;4.82;4.43;;;21.60;74.00;;;;;;5014090;28;20068;-44
2021/07/04 01:33:30;;;;;;;5.10;4.25;;;21.60;73.90;;;;;;5013838;28;20037;-43
2021/07/04 01:35:56;;;;;;;5.28;4.82;;;21.60;73.80;;;;;;5014088;28;20473;-43
2021/07/04 01:38:21;;;;;;;5.05;4.65;;;21.60;73.80;;;;;;5012498;28;20149;-42
2021/07/04 01:40:47;;;;;;;5.68;4.30;;;21.40;73.70;;;;;;5013914;28;20158;-42
2021/07/04 01:43:13;;;;;;;4.97;4.53;;;21.60;73.80;;;;;;5013493;28;20497;-43
2021/07/04 01:45:39;;;;;;;4.80;4.18;;;21.60;73.80;;;;;;5013798;28;20041;-43
2021/07/04 01:48:06;;;;;;;4.65;4.22;;;21.60;73.80;;;;;;5013756;28;20034;-42
2021/07/04 01:50:36;;;;;;;5.95;4.47;;;21.60;73.80;;;;;;5013779;28;20037;-43
2021/07/04 01:53:02;;;;;;;5.07;4.57;;;21.60;73.80;;;;;;5013765;28;20029;-43
2021/07/04 01:55:28;;;;;;;4.65;4.25;;;21.50;73.70;;;;;;5013497;28;20389;-43
2021/07/04 01:57:54;;;;;;;5.18;4.68;;;21.60;73.70;;;;;;5012823;28;20034;-42
2021/07/04 02:00:23;;;;;;;5.50;4.43;;;21.40;73.50;;;;;;5013587;28;20037;-42
2021/07/04 02:02:51;;;;;;;4.82;4.43;;;21.60;73.70;;;;;;5013639;28;20377;-42
2021/07/04 02:05:17;;;;;;;5.35;4.85;;;21.30;73.50;;;;;;5012397;28;20072;-42
2021/07/04 02:07:43;;;;;;;4.38;3.97;;;21.30;73.50;;;;;;5012237;28;20422;-42
2021/07/04 02:10:17;;;;;;;5.22;4.55;;;21.30;73.40;;;;;;5013175;28;20068;-43
2021/07/04 02:12:42;;;;;;;4.50;4.10;;;21.60;73.50;;;;;;5013433;28;20022;-42
2021/07/04 02:15:14;;;;;;;4.88;4.47;;;21.40;73.40;;;;;;5013484;28;20030;-42
2021/07/04 02:17:40;;;;;;;5.68;4.60;;;21.50;73.40;;;;;;5013142;28;20025;-43
2021/07/04 02:20:25;;;;;;;4.53;4.13;;;21.60;73.60;;;;;;5013050;28;20381;-43
2021/07/04 02:22:51;;;;;;;4.78;4.32;;;21.50;73.40;;;;;;5012999;28;20026;-43
2021/07/04 02:25:17;;;;;;;4.70;4.30;;;21.60;73.40;;;;;;5013023;28;20071;-42
2021/07/04 02:27:42;;;;;;;4.88;4.47;;;21.60;73.50;;;;;;5012933;28;20026;-42
2021/07/04 02:30:09;;;;;;;4.78;4.38;;;21.60;73.40;;;;;;5012956;28;20022;-43
2021/07/04 02:32:35;;;;;;;4.25;3.80;;;21.60;73.30;;;;;;5012938;28;20018;-42
2021/07/04 02:35:03;;;;;;;5.10;4.60;;;21.30;73.50;;;;;;5013256;28;20496;-43
2021/07/04 02:37:29;;;;;;;4.65;4.22;;;21.60;73.30;;;;;;5013163;28;20376;-43
2021/07/04 02:39:55;;;;;;;4.57;4.20;;;21.60;73.20;;;;;;5013134;28;20022;-43
2021/07/04 02:42:20;;;;;;;4.80;4.35;;;21.50;73.20;;;;;;5011742;28;20026;-43
2021/07/04 02:44:46;;;;;;;4.43;4.03;;;21.50;73.20;;;;;;5012717;28;20056;-43
2021/07/04 02:47:11;;;;;;;4.95;4.55;;;21.40;73.10;;;;;;5013042;28;20061;-43
2021/07/04 02:49:37;;;;;;;4.70;4.30;;;21.50;73.20;;;;;;5011595;28;20504;-43
2021/07/04 02:52:03;;;;;;;4.95;4.55;;;21.30;73.10;;;;;;5013080;28;20116;-43
2021/07/04 02:54:28;;;;;;;6.03;4.75;;;21.50;73.10;;;;;;5012809;28;20037;-43
2021/07/04 02:56:54;;;;;;;5.40;4.38;;;21.50;73.10;;;;;;5013053;28;20022;-43
2021/07/04 02:59:20;;;;;;;4.43;4.07;;;21.50;73.20;;;;;;5012888;28;20029;-43
2021/07/04 03:01:45;;;;;;;4.72;4.32;;;21.50;72.80;;;;;;5012852;28;20026;-43
2021/07/04 03:04:11;;;;;;;4.93;4.43;;;21.30;72.90;;;;;;5012912;28;20052;-45
2021/07/04 03:06:37;;;;;;;4.40;4.00;;;21.50;73.00;;;;;;5013029;28;20458;-42
2021/07/04 03:09:04;;;;;;;5.07;4.68;;;21.50;72.80;;;;;;5013688;28;20116;-43
2021/07/04 03:11:29;;;;;;;4.63;4.22;;;21.30;72.90;;;;;;5016931;28;20045;-43
2021/07/04 03:13:55;;;;;;;5.13;4.63;;;21.70;72.90;;;;;;5016986;28;20049;-43
2021/07/04 03:16:20;;;;;;;5.18;4.35;;;21.50;72.90;;;;;;5016895;28;20461;-43
2021/07/04 03:18:46;;;;;;;4.78;4.38;;;21.50;72.90;;;;;;5016783;28;20022;-43
2021/07/04 03:21:12;;;;;;;4.70;4.30;;;21.50;73.00;;;;;;5016735;28;20073;-44
2021/07/04 03:23:37;;;;;;;4.82;4.40;;;21.50;73.50;;;;;;5016326;28;20029;-43
2021/07/04 03:26:03;;;;;;;4.93;4.53;;;21.50;72.80;;;;;;5016399;28;20021;-43
2021/07/04 03:28:29;;;;;;;4.90;4.50;;;21.50;72.90;;;;;;5016585;28;20096;-43
2021/07/04 03:30:54;;;;;;;5.43;4.90;;;21.30;72.70;;;;;;5016510;28;20021;-44
2021/07/04 03:33:20;;;;;;;4.97;4.57;;;21.50;72.90;;;;;;5016497;28;20037;-43
2021/07/04 03:35:45;;;;;;;5.28;4.78;;;21.50;72.80;;;;;;5016432;28;20145;-46
2021/07/04 03:38:11;;;;;;;8.70;4.60;;;21.50;72.80;;;;;;5016087;28;20519;-47
2021/07/04 03:40:37;;;;;;;4.78;4.38;;;21.50;72.80;;;;;;5016369;28;20022;-43
2021/07/04 03:43:02;;;;;;;4.97;4.55;;;21.50;72.80;;;;;;5015625;28;20477;-43
2021/07/04 03:45:28;;;;;;;5.20;4.70;;;21.50;72.80;;;;;;5016078;28;20116;-43
2021/07/04 03:47:54;;;;;;;4.60;4.20;;;21.50;72.70;;;;;;5015633;28;20037;-42
2021/07/04 03:50:19;;;;;;;5.10;4.70;;;21.50;72.70;;;;;;5015922;28;20022;-43
2021/07/04 03:52:45;;;;;;;5.38;4.85;;;21.50;72.80;;;;;;5015622;28;20512;-43
2021/07/04 03:55:11;;;;;;;5.57;4.90;;;21.50;72.60;;;;;;5015598;28;20014;-43
2021/07/04 03:57:37;;;;;;;4.55;4.20;;;21.50;72.60;;;;;;5015855;28;20066;-43
2021/07/04 04:00:06;;;;;;;5.50;5.00;;;21.50;72.70;;;;;;5015707;28;20049;-42
2021/07/04 04:02:31;;;;;;;5.43;4.93;;;21.50;72.70;;;;;;5015713;28;20045;-42
2021/07/04 04:04:58;;;;;;;5.38;4.88;;;21.50;72.70;;;;;;5015427;28;20025;-42
2021/07/04 04:07:25;;;;;;;5.35;4.82;;;21.50;72.60;;;;;;5015635;28;20080;-42
2021/07/04 04:09:52;;;;;;;5.38;4.75;;;21.30;72.50;;;;;;5015643;28;20472;-43
2021/07/04 04:12:18;;;;;;;5.40;4.90;;;21.20;72.40;;;;;;5015625;28;20029;-44
2021/07/04 04:14:44;;;;;;;5.45;4.95;;;21.30;72.40;;;;;;5015327;28;20026;-43
2021/07/04 04:17:10;;;;;;;7.70;5.53;;;21.50;72.60;;;;;;5015206;28;20036;-43
2021/07/04 04:19:35;;;;;;;5.43;4.93;;;21.50;72.50;;;;;;5015585;28;20060;-42
2021/07/04 04:22:01;;;;;;;5.50;5.00;;;21.20;72.40;;;;;;5014559;28;20030;-43
2021/07/04 04:24:27;;;;;;;6.35;5.20;;;21.50;72.50;;;;;;5015384;28;20057;-44
2021/07/04 04:26:53;;;;;;;5.72;4.97;;;21.50;72.50;;;;;;5015249;28;20021;-43
2021/07/04 04:29:18;;;;;;;5.00;4.50;;;21.50;72.60;;;;;;5015344;28;20385;-42
2021/07/04 04:31:44;;;;;;;6.38;5.10;;;21.40;72.50;;;;;;5015207;28;20018;-43
2021/07/04 04:34:10;;;;;;;5.28;4.78;;;21.30;72.40;;;;;;5014912;28;20029;-43
2021/07/04 04:36:36;;;;;;;5.50;5.00;;;21.20;72.30;;;;;;5014859;28;20022;-44
2021/07/04 04:39:04;;;;;;;5.55;4.95;;;21.40;72.40;;;;;;5014835;28;20018;-43
2021/07/04 04:41:29;;;;;;;4.95;4.55;;;21.50;72.50;;;;;;5014872;28;20030;-43
2021/07/04 04:43:55;;;;;;;5.53;5.03;;;21.40;72.40;;;;;;5014581;28;20107;-44
2021/07/04 04:46:20;;;;;;;5.28;4.88;;;21.50;72.50;;;;;;5014666;28;20026;-43
2021/07/04 04:48:46;;;;;;;5.30;4.80;;;21.40;72.40;;;;;;5014849;28;20037;-42
2021/07/04 04:51:11;;;;;;;6.15;4.90;;;21.40;72.40;;;;;;5014888;28;20460;-42
2021/07/04 04:53:37;;;;;;;5.25;4.75;;;21.40;72.40;;;;;;5014880;28;20037;-43
2021/07/04 04:56:03;;;;;;;5.72;5.20;;;21.40;72.40;;;;;;5014539;28;20029;-43
2021/07/04 04:58:28;;;;;;;5.68;5.18;;;21.40;90.10;;;;;;5014691;28;20038;-44
2021/07/04 05:00:54;;;;;;;5.50;5.00;;;21.40;72.20;;;;;;5014685;28;20018;-43
2021/07/04 05:03:19;;;;;;;5.70;5.10;;;21.40;72.40;;;;;;5014553;28;20037;-45
2021/07/04 05:05:45;;;;;;;5.90;5.22;;;21.40;72.40;;;;;;5014605;28;20021;-43
2021/07/04 05:08:11;;;;;;;5.25;4.85;;;21.30;72.40;;;;;;5014235;28;20037;-43
2021/07/04 05:10:36;;;;;;;5.10;4.70;;;21.50;72.40;;;;;;5014488;28;20105;-43
2021/07/04 05:13:02;;;;;;;5.28;4.78;;;21.20;72.20;;;;;;5013268;28;20473;-42
2021/07/04 05:15:28;;;;;;;5.97;5.40;;;21.60;72.40;;;;;;5014417;28;20026;-43
2021/07/04 05:17:53;;;;;;;5.45;4.95;;;21.40;72.30;;;;;;5014326;28;20448;-43
2021/07/04 05:20:19;;;;;;;5.25;4.75;;;21.40;72.30;;;;;;5014356;28;20105;-43
2021/07/04 05:22:45;;;;;;;5.65;5.15;;;21.40;72.30;;;;;;5014197;28;20379;-42
2021/07/04 05:25:11;;;;;;;5.32;4.82;;;21.20;72.10;;;;;;5014008;28;20449;-42
2021/07/04 05:27:37;;;;;;;5.72;5.20;;;21.40;72.20;;;;;;5013770;28;20036;-43
2021/07/04 05:30:04;;;;;;;5.38;4.88;;;21.50;90.80;;;;;;5013952;28;20026;-42
2021/07/04 05:32:29;;;;;;;6.88;5.20;;;21.40;72.30;;;;;;5013302;28;20077;-42
2021/07/04 05:34:55;;;;;;;5.28;4.78;;;21.40;72.20;;;;;;5013891;28;20026;-43
2021/07/04 05:37:21;;;;;;;5.45;4.95;;;21.60;72.20;;;;;;5013823;28;20018;-43
2021/07/04 05:39:46;;;;;;;5.35;4.85;;;21.40;72.10;;;;;;5013940;28;20148;-43
2021/07/04 05:42:12;;;;;;;4.85;4.45;;;21.40;72.00;;;;;;5013963;28;20029;-43
2021/07/04 05:44:38;;;;;;;5.60;5.20;;;21.40;72.10;;;;;;5012220;28;20245;-42
2021/07/04 05:47:04;;;;;;;5.43;4.82;;;21.40;72.00;;;;;;5013762;28;20036;-43
2021/07/04 05:49:29;;;;;;;5.70;5.15;;;21.40;72.10;;;;;;5013853;28;20045;-43
2021/07/04 05:51:55;;;;;;;5.00;4.60;;;21.30;72.00;;;;;;5013446;28;20033;-42
2021/07/04 05:54:21;;;;;;;5.68;5.07;;;21.40;72.10;;;;;;5013682;28;20032;-42
2021/07/04 05:56:46;;;;;;;5.18;4.60;;;21.50;72.20;;;;;;5013663;28;20014;-43
2021/07/04 05:59:12;;;;;;;5.80;5.10;;;21.30;72.10;;;;;;5013324;28;20057;-43
2021/07/04 06:01:38;;;;;;;4.90;4.50;;;21.40;72.20;;;;;;5013201;28;20474;-43
2021/07/04 06:04:04;;;;;;;5.70;5.20;;;21.30;72.20;;;;;;5013589;28;20032;-42
2021/07/04 06:06:30;;;;;;;5.95;5.35;;;21.50;72.20;;;;;;5013537;28;20018;-43
2021/07/04 06:08:55;;;;;;;5.60;5.13;;;21.50;72.20;;;;;;5013165;28;20443;-43
2021/07/04 06:11:21;;;;;;;5.78;5.13;;;21.50;72.20;;;;;;5013483;28;20018;-42
2021/07/04 06:13:47;;;;;;;5.35;4.85;;;21.40;72.00;;;;;;5013443;28;20362;-42
2021/07/04 06:16:12;;;;;;;4.78;4.38;;;21.50;72.00;;;;;;5013171;28;20022;-42
2021/07/04 06:18:38;;;;;;;5.45;4.95;;;21.50;71.90;;;;;;5013334;28;20169;-42
2021/07/04 06:21:04;;;;;;;4.88;4.38;;;21.50;71.80;;;;;;5013066;28;20053;-43
2021/07/04 06:23:30;;;;;;;4.82;4.28;;;21.50;71.70;;;;;;5013378;28;20029;-43
2021/07/04 06:25:56;;;;;;;5.15;4.65;;;21.50;71.70;;;;;;5013233;28;20381;-44
2021/07/04 06:28:21;;;;;;;4.80;4.43;;;21.50;71.70;;;;;;5013197;28;20034;-43
2021/07/04 06:30:47;;;;;;;4.88;4.18;;;21.50;71.70;;;;;;5013248;28;20064;-42
2021/07/04 06:33:13;;;;;;;4.85;4.45;;;21.50;71.70;;;;;;5013271;28;20528;-43
2021/07/04 06:35:39;;;;;;;5.50;5.00;;;21.60;71.80;;;;;;5013283;28;20030;-44
2021/07/04 06:38:05;;;;;;;4.85;4.38;;;21.50;71.70;;;;;;5013187;28;20105;-43
2021/07/04 06:40:31;;;;;;;4.40;4.07;;;21.50;71.60;;;;;;5013432;28;20110;-43
2021/07/04 06:42:56;;;;;;;4.97;4.57;;;21.50;72.20;;;;;;5013000;28;20022;-43
2021/07/04 06:45:22;;;;;;;4.28;3.88;;;21.60;71.70;;;;;;5016019;28;20022;-43
2021/07/04 06:47:49;;;;;;;4.70;4.30;;;21.60;71.70;;;;;;5015981;28;20040;-43
2021/07/04 06:50:16;;;;;;;4.53;4.13;;;21.60;71.60;;;;;;5016878;28;20026;-43
2021/07/04 06:52:43;;;;;;;5.38;4.70;;;21.60;71.70;;;;;;5017102;28;20018;-43
2021/07/04 06:55:10;;;;;;;5.95;4.35;;;21.60;71.80;;;;;;5016872;28;20037;-43
2021/07/04 06:57:35;;;;;;;7.80;4.25;;;21.60;71.80;;;;;;5016727;28;20458;-43
2021/07/04 07:00:08;;;;;;;6.25;4.43;;;21.70;71.90;;;;;;5017007;28;20040;-43
2021/07/04 07:02:34;;;;;;;7.05;4.47;;;21.60;71.70;;;;;;5016697;28;20432;-43
2021/07/04 07:05:00;;;;;;;7.22;4.50;;;21.70;72.00;;;;;;5016956;28;20487;-43
2021/07/04 07:07:26;;;;;;;7.57;4.40;;;21.70;72.00;;;;;;5016854;28;20102;-43
2021/07/04 07:09:52;;;;;;;5.20;3.88;;;21.70;71.90;;;;;;5016751;28;20030;-45
2021/07/04 07:12:18;;;;;;;4.13;3.80;;;21.60;71.90;;;;;;5016504;28;20105;-45
2021/07/04 07:14:43;;;;;;;4.20;3.85;;;21.70;72.00;;;;;;5016422;28;20029;-43
2021/07/04 07:17:10;;;;;;;7.97;4.40;;;21.70;72.00;;;;;;5015245;28;20030;-44
2021/07/04 07:19:35;;;;;;;12.43;4.15;;;21.70;71.80;;;;;;5015155;28;20028;-43
2021/07/04 07:22:02;;;;;;;4.18;3.88;;;21.60;71.70;;;;;;5016125;28;20022;-43
2021/07/04 07:24:28;;;;;;;5.70;3.72;;;21.60;71.70;;;;;;5016486;28;20026;-42
2021/07/04 07:26:54;;;;;;;4.20;3.83;;;21.70;71.70;;;;;;5016217;28;20385;-43
2021/07/04 07:29:20;;;;;;;4.38;3.97;;;22.10;72.50;;;;;;5016303;28;20072;-43
2021/07/04 07:31:46;;;;;;;3.70;3.50;;;21.70;71.60;;;;;;5016480;28;20088;-41
2021/07/04 07:34:13;;;;;;;5.63;4.00;;;21.50;71.40;;;;;;5016383;28;20440;-43
2021/07/04 07:36:39;;;;;;;6.70;4.00;;;21.70;71.60;;;;;;5016366;28;20110;-42
2021/07/04 07:39:05;;;;;;;6.18;3.60;;;21.70;71.80;;;;;;5016245;28;20461;-43
2021/07/04 07:41:31;;;;;;;3.90;3.60;;;21.70;71.70;;;;;;5016272;28;20048;-43
2021/07/04 07:43:57;;;;;;;4.80;3.65;;;21.70;71.80;;;;;;5015870;28;20045;-43
2021/07/04 07:46:23;;;;;;;7.47;3.67;;;21.70;71.70;;;;;;5016124;28;20026;-43
2021/07/04 07:48:48;;;;;;;5.43;3.50;;;21.50;71.60;;;;;;5016097;28;20041;-43
2021/07/04 07:51:14;;;;;;;3.50;3.25;;;21.50;71.50;;;;;;5016061;28;20084;-42
2021/07/04 07:53:41;;;;;;;4.93;3.85;;;21.70;71.50;;;;;;5015769;28;20037;-42
2021/07/04 07:56:07;;;;;;;3.33;2.97;;;21.70;71.30;;;;;;5014942;28;20018;-43
2021/07/04 07:58:32;;;;;;;4.60;3.33;;;22.10;71.50;;;;;;5015563;28;20381;-43
2021/07/04 08:00:58;;;;;;;3.78;3.30;;;21.80;71.40;;;;;;5015908;28;20117;-43
2021/07/04 08:03:23;;;;;;;3.20;3.00;;;21.80;71.30;;;;;;5015880;28;20022;-43
2021/07/04 08:05:49;;;;;;;4.10;3.50;;;21.90;71.40;;;;;;5015540;28;20026;-43
2021/07/04 08:08:15;;;;;;;4.38;3.28;;;21.80;71.20;;;;;;5015401;28;20038;-42
2021/07/04 08:10:40;;;;;;;4.05;3.03;;;21.80;71.10;;;;;;5015665;28;20045;-43
2021/07/04 08:13:06;;;;;;;4.97;3.03;;;21.80;71.10;;;;;;5015262;28;20061;-42
2021/07/04 08:15:32;;;;;;;3.80;3.28;;;21.80;71.00;;;;;;5015191;28;20026;-42
2021/07/04 08:17:57;;;;;;;3.47;2.95;;;21.80;71.00;;;;;;5015490;28;20015;-43
2021/07/04 08:20:23;;;;;;;3.60;3.30;;;21.60;70.90;;;;;;5015409;28;20425;-43
2021/07/04 08:22:49;;;;;;;4.32;3.38;;;21.80;71.00;;;;;;5015264;28;20412;-45
2021/07/04 08:25:16;;;;;;;4.00;2.70;;;21.80;71.00;;;;;;5015076;28;20032;-43
2021/07/04 08:27:42;;;;;;;4.18;3.00;;;21.80;71.00;;;;;;5015087;28;20038;-43
2021/07/04 08:30:11;;;;;;;3.38;3.08;;;21.80;71.00;;;;;;5015220;28;20022;-43
2021/07/04 08:32:37;;;;;;;3.15;2.85;;;21.80;71.00;;;;;;5014854;28;20426;-42
2021/07/04 08:35:04;;;;;;;3.13;2.85;;;21.80;71.00;;;;;;5015154;28;20068;-43
2021/07/04 08:37:29;;;;;;;3.42;3.13;;;21.80;71.00;;;;;;5013649;28;20052;-42
2021/07/04 08:39:55;;;;;;;3.03;2.80;;;21.50;70.80;;;;;;5015214;28;20018;-57
2021/07/04 08:42:20;;;;;;;3.22;2.92;;;21.80;70.90;;;;;;5015070;28;20018;-43
2021/07/04 08:44:48;;;;;;;2.97;2.65;;;21.70;70.90;;;;;;5014680;28;20046;-43
2021/07/04 08:47:17;;;;;;;3.03;2.83;;;21.90;71.00;;;;;;5014663;28;20488;-42
2021/07/04 08:49:42;;;;;;;2.60;2.40;;;21.80;70.80;;;;;;5015020;28;20026;-42
2021/07/04 08:52:08;;;;;;;2.88;2.67;;;21.60;70.70;;;;;;5014922;28;20168;-42
2021/07/04 08:54:33;;;;;;;2.88;2.67;;;21.70;70.80;;;;;;5014627;28;20018;-42
2021/07/04 08:56:59;;;;;;;2.88;2.53;;;21.90;71.00;;;;;;5014874;28;20060;-43
2021/07/04 08:59:25;;;;;;;2.53;2.33;;;22.00;71.00;;;;;;5014758;28;20480;-43
2021/07/04 09:01:50;;;;;;;3.47;2.70;;;22.00;70.90;;;;;;5014705;28;20026;-44
2021/07/04 09:04:20;;;;;;;3.25;2.83;;;22.00;70.90;;;;;;5014449;28;20461;-43
2021/07/04 09:06:52;;;;;;;2.80;2.60;;;21.90;70.70;;;;;;5014572;28;20076;-43
2021/07/04 09:09:27;;;;;;;3.22;2.92;;;21.80;70.50;;;;;;5013187;28;20064;-42
2021/07/04 09:12:00;;;;;;;3.03;2.78;;;22.10;70.60;;;;;;5014902;28;20018;-42
2021/07/04 09:14:34;;;;;;;2.65;2.50;;;22.10;70.50;;;;;;5014450;28;20030;-42
2021/07/04 09:17:00;;;;;;;3.33;2.67;;;22.10;70.40;;;;;;5014420;28;20204;-42
2021/07/04 09:19:25;;;;;;;2.70;2.50;;;22.10;70.20;;;;;;5014490;28;20101;-42
2021/07/04 09:22:03;;;;;;;2.90;2.70;;;22.10;70.10;;;;;;5014430;28;20190;-43
2021/07/04 09:24:34;;;;;;;4.53;2.67;;;22.10;70.10;;;;;;5014002;28;20029;-43
2021/07/04 09:27:01;;;;;;;2.90;2.65;;;22.10;70.10;;;;;;5013860;28;20064;-42
2021/07/04 09:29:42;;;;;;;2.95;2.75;;;22.20;70.10;;;;;;5014307;28;20041;-42
2021/07/04 09:32:18;;;;;;;3.17;2.47;;;22.20;70.20;;;;;;5013906;28;20084;-42
2021/07/04 09:35:00;;;;;;;3.60;2.67;;;22.10;70.10;;;;;;5013879;28;20116;-43
2021/07/04 09:37:35;;;;;;;3.13;2.72;;;22.20;70.20;;;;;;5013999;28;20109;-43
2021/07/04 09:40:20;;;;;;;3.45;2.55;;;22.40;70.20;;;;;;5014131;28;20049;-43
2021/07/04 09:43:16;;;;;;;2.35;2.15;;;22.20;70.00;;;;;;5013707;28;20381;-42
2021/07/04 09:45:58;;;;;;;2.90;2.58;;;22.20;69.90;;;;;;5013813;28;20084;-41
2021/07/04 09:48:30;;;;;;;2.78;2.30;;;22.20;69.90;;;;;;5013672;28;20485;-41
2021/07/04 09:50:59;;;;;;;3.55;2.55;;;22.30;70.00;;;;;;5012299;28;20022;-43
2021/07/04 09:53:36;;;;;;;3.72;2.47;;;22.30;69.80;;;;;;5012254;28;20022;-42
2021/07/04 09:56:25;;;;;;;2.67;2.47;;;22.30;69.80;;;;;;5012448;28;20026;-42
2021/07/04 09:58:53;;;;;;;2.75;2.55;;;22.30;69.80;;;;;;5012993;28;20026;-41
2021/07/04 10:01:43;;;;;;;2.40;2.30;;;22.30;69.70;;;;;;5013513;28;20040;-42
2021/07/04 10:04:36;;;;;;;3.70;2.28;;;22.40;69.60;;;;;;5013534;28;20026;-42
2021/07/04 10:07:03;;;;;;;2.38;1.95;;;22.40;69.50;;;;;;5013561;28;20033;-42
2021/07/04 10:09:29;;;;;;;2.78;2.20;;;22.40;69.50;;;;;;5013680;28;20057;-42
2021/07/04 10:11:56;;;;;;;4.35;2.40;;;22.40;69.40;;;;;;5013514;28;20022;-42
2021/07/04 10:14:22;;;;;;;2.42;2.10;;;22.30;69.30;;;;;;5013493;28;20025;-42
2021/07/04 10:16:48;;;;;;;2.85;2.13;;;22.40;69.40;;;;;;5013521;28;20049;-42
2021/07/04 10:19:18;;;;;;;3.17;2.60;;;22.30;69.20;;;;;;5012847;28;20032;-42
2021/07/04 10:21:45;;;;;;;2.75;2.38;;;22.40;69.20;;;;;;5013440;28;20096;-42
2021/07/04 10:24:11;;;;;;;3.25;2.65;;;22.40;69.20;;;;;;5013421;28;20022;-42
2021/07/04 10:26:39;;;;;;;2.53;2.30;;;22.40;69.00;;;;;;5013276;28;20021;-42
2021/07/04 10:29:07;;;;;;;4.10;2.17;;;22.40;69.00;;;;;;5012960;28;20034;-43
2021/07/04 10:31:34;;;;;;;4.78;2.22;;;22.40;69.00;;;;;;5013038;28;20029;-42
2021/07/04 10:34:11;;;;;;;2.92;2.25;;;22.40;69.00;;;;;;5013225;28;20381;-43
2021/07/04 10:36:57;;;;;;;4.68;2.40;;;22.40;69.00;;;;;;5013223;28;20030;-42
2021/07/04 10:39:23;;;;;;;2.60;2.40;;;22.50;69.00;;;;;;5012999;28;20024;-43
2021/07/04 10:42:01;;;;;;;2.33;2.10;;;22.50;69.00;;;;;;5012853;28;20037;-45
2021/07/04 10:44:44;;;;;;;3.90;2.33;;;22.50;68.90;;;;;;5012856;28;20397;-42
2021/07/04 10:47:14;;;;;;;2.60;2.13;;;22.50;68.90;;;;;;5012794;28;20026;-42
2021/07/04 10:49:44;;;;;;;2.50;1.90;;;22.50;68.90;;;;;;5012816;28;20049;-43
2021/07/04 10:52:15;;;;;;;2.30;2.10;;;22.50;68.80;;;;;;5013174;28;20033;-43
2021/07/04 10:54:44;;;;;;;3.15;2.17;;;22.20;68.60;;;;;;5012848;28;20033;-42
2021/07/04 10:57:13;;;;;;;2.88;2.15;;;22.40;68.70;;;;;;5013019;28;20048;-42
2021/07/04 11:00:06;;;;;;;2.05;1.95;;;22.50;68.70;;;;;;5012650;28;20029;-42
2021/07/04 11:02:41;;;;;;;2.28;2.08;;;22.50;68.60;;;;;;5012972;28;20080;-42
2021/07/04 11:05:26;;;;;;;2.85;2.05;;;22.50;68.60;;;;;;5012982;28;20038;-42
2021/07/04 11:07:54;;;;;;;2.10;2.00;;;22.50;68.50;;;;;;5012823;28;20123;-43
2021/07/04 11:10:20;;;;;;;2.47;1.90;;;22.50;68.40;;;;;;5012648;28;20026;-42
2021/07/04 11:12:46;;;;;;;2.42;2.22;;;22.50;68.40;;;;;;5012594;28;20021;-42
2021/07/04 11:15:14;;;;;;;4.00;1.85;;;22.50;68.30;;;;;;5012461;28;20583;-42
2021/07/04 11:17:55;;;;;;;2.00;1.90;;;22.60;68.30;;;;;;5012788;28;20080;-42
2021/07/04 11:20:29;;;;;;;2.30;2.10;;;22.30;68.10;;;;;;5012844;28;20022;-42
2021/07/04 11:23:04;;;;;;;2.42;2.10;;;22.50;68.20;;;;;;5012801;28;20032;-43
2021/07/04 11:25:44;;;;;;;2.28;1.80;;;22.60;68.20;;;;;;5012762;28;20373;-42
2021/07/04 11:28:16;;;;;;;;;;;22.60;68.10;;;;;;5013124;28;20385;-42
2021/07/04 11:31:13;;;;;;;2.00;1.70;;;22.60;68.10;;;;;;5014353;28;19906;-42
2021/07/04 11:33:44;;;;;;;2.60;1.85;;;22.60;68.10;;;;;;4989094;28;20052;-42
2021/07/04 11:36:20;;;;;;;1.85;1.75;;;22.60;68.20;;;;;;5016452;28;20028;-41
2021/07/04 11:38:49;;;;;;;1.80;1.70;;;22.60;68.10;;;;;;5016182;28;20084;-41
2021/07/04 11:41:24;;;;;;;1.95;1.85;;;22.60;68.00;;;;;;5016692;28;20384;-42
2021/07/04 11:43:56;;;;;;;1.98;1.88;;;22.60;68.00;;;;;;5015882;28;20046;-41
2021/07/04 11:46:24;;;;;;;2.13;2.03;;;22.60;68.00;;;;;;5015955;28;20022;-41
2021/07/04 11:49:08;;;;;;;2.00;1.80;;;22.50;67.90;;;;;;5016011;28;20034;-42
2021/07/04 11:51:47;;;;;;;2.38;2.28;;;22.60;67.90;;;;;;5016086;28;20500;-41
2021/07/04 11:54:28;;;;;;;2.07;1.93;;;22.60;67.90;;;;;;5015809;28;20026;-42
2021/07/04 12:00:07;;;;;;;1.77;1.67;;;22.60;67.80;;;;;;5015917;28;20064;-42
2021/07/04 12:02:43;;;;;;;5.45;2.05;;;22.70;67.80;;;;;;5015551;28;20156;-42
2021/07/04 12:05:13;;;;;;;1.92;1.83;;;22.60;67.70;;;;;;5015864;28;20037;-43
2021/07/04 12:07:39;;;;;;;2.03;1.83;;;22.70;67.80;;;;;;5015396;28;20030;-42
2021/07/04 12:10:06;;;;;;;3.03;1.80;;;22.60;67.70;;;;;;5015359;28;20029;-42
2021/07/04 12:12:34;;;;;;;2.20;2.05;;;22.70;67.80;;;;;;5015759;28;20386;-43
2021/07/04 12:15:12;;;;;;;2.72;1.95;;;22.70;67.70;;;;;;5015640;28;20377;-42
2021/07/04 12:17:44;;;;;;;1.80;1.70;;;22.70;67.60;;;;;;5015333;28;20153;-44
2021/07/04 12:20:10;;;;;;;2.50;1.90;;;22.90;67.80;;;;;;5015536;28;20025;-42
2021/07/04 12:22:42;;;;;;;1.63;1.52;;;22.70;67.50;;;;;;5013973;28;20500;-43
2021/07/04 12:25:14;;;;;;;2.22;1.80;;;22.70;67.50;;;;;;5015327;28;20030;-43
2021/07/04 12:27:43;;;;;;;1.75;1.65;;;22.50;67.40;;;;;;5015394;28;20189;-42
2021/07/04 12:30:12;;;;;;;2.00;1.80;;;22.40;67.30;;;;;;5015340;28;20433;-42
2021/07/04 12:32:42;;;;;;;1.40;1.30;;;22.70;67.40;;;;;;5015386;28;20033;-42
2021/07/04 12:35:09;;;;;;;;;;;22.70;67.50;;;;;;5015409;28;20024;-42
2021/07/04 12:37:36;;;;;;;1.90;1.80;;;22.60;67.40;;;;;;5013729;28;19967;-42
2021/07/04 12:40:12;;;;;;;1.67;1.58;;;22.60;67.40;;;;;;5015104;28;20021;-42
2021/07/04 12:42:39;;;;;;;3.00;2.30;;;22.70;67.40;;;;;;5014648;28;20025;-43
2021/07/04 12:45:05;;;;;;;1.98;1.50;;;22.90;67.50;;;;;;5014583;28;20516;-42
2021/07/04 12:47:30;;;;;;;2.08;1.63;;;22.70;67.50;;;;;;5014874;28;20070;-43
2021/07/04 12:50:02;;;;;;;1.52;1.42;;;22.60;67.30;;;;;;5014994;28;20024;-42
2021/07/04 12:52:28;;;;;;;1.98;1.55;;;22.70;67.30;;;;;;5014640;28;20497;-43
2021/07/04 12:54:54;;;;;;;1.67;1.58;;;22.70;67.40;;;;;;5014876;28;20060;-43